sensor_id;sensor_type;location;lat;lon;timestamp;pressure;altitude;pressure_sealevel;temperature;humidity
21824;BME280;11074;48.596;9.238;2023-03-20T00:02:06;98467.38;;;10.91;92.49
21824;BME280;11074;48.596;9.238;2023-03-20T00:04:32;98472.50;;;10.76;93.56
21824;BME280;11074;48.596;9.238;2023-03-20T00:06:57;98473.75;;;10.69;92.79
21824;BME280;11074;48.596;9.238;2023-03-20T00:09:23;98466.69;;;10.79;92.58
21824;BME280;11074;48.596;9.238;2023-03-20T00:11:53;98467.50;;;10.80;92.77
21824;BME280;11074;48.596;9.238;2023-03-20T00:14:21;98469.09;;;10.81;91.88
21824;BME280;11074;48.596;9.238;2023-03-20T00:16:50;98464.13;;;10.89;92.28
21824;BME280;11074;48.596;9.238;2023-03-20T00:19:25;98477.50;;;10.89;91.89
21824;BME280;11074;48.596;9.238;2023-03-20T00:21:53;98471.41;;;10.72;92.05
21824;BME280;11074;48.596;9.238;2023-03-20T00:24:19;98477.53;;;10.73;91.94
21824;BME280;11074;48.596;9.238;2023-03-20T00:26:47;98476.22;;;10.75;92.52
21824;BME280;11074;48.596;9.238;2023-03-20T00:29:28;98474.63;;;10.74;91.74
21824;BME280;11074;48.596;9.238;2023-03-20T00:31:56;98472.66;;;10.70;92.48
21824;BME280;11074;48.596;9.238;2023-03-20T00:34:26;98472.44;;;10.55;92.81
21824;BME280;11074;48.596;9.238;2023-03-20T00:36:53;98466.47;;;10.48;93.28
21824;BME280;11074;48.596;9.238;2023-03-20T00:39:20;98467.44;;;10.58;92.43
21824;BME280;11074;48.596;9.238;2023-03-20T00:41:51;98472.66;;;10.70;93.28
21824;BME280;11074;48.596;9.238;2023-03-20T00:44:25;98473.81;;;10.74;92.17
21824;BME280;11074;48.596;9.238;2023-03-20T00:46:59;98473.56;;;10.75;91.99
21824;BME280;11074;48.596;9.238;2023-03-20T00:49:31;98481.91;;;10.79;91.57
21824;BME280;11074;48.596;9.238;2023-03-20T00:51:58;98475.50;;;10.80;90.58
21824;BME280;11074;48.596;9.238;2023-03-20T00:54:26;98485.13;;;10.81;90.12
21824;BME280;11074;48.596;9.238;2023-03-20T00:57:05;98481.34;;;10.77;90.63
21824;BME280;11074;48.596;9.238;2023-03-20T00:59:36;98488.22;;;10.73;91.65
21824;BME280;11074;48.596;9.238;2023-03-20T01:02:05;98489.78;;;10.69;92.39
21824;BME280;11074;48.596;9.238;2023-03-20T01:04:40;98487.94;;;10.69;92.26
21824;BME280;11074;48.596;9.238;2023-03-20T01:07:11;98487.19;;;10.74;92.10
21824;BME280;11074;48.596;9.238;2023-03-20T01:09:38;98479.22;;;10.79;91.40
21824;BME280;11074;48.596;9.238;2023-03-20T01:12:05;98482.72;;;10.79;91.32
21824;BME280;11074;48.596;9.238;2023-03-20T01:14:33;98484.84;;;10.77;92.03
21824;BME280;11074;48.596;9.238;2023-03-20T01:16:59;98492.78;;;10.72;92.11
21824;BME280;11074;48.596;9.238;2023-03-20T01:19:25;98490.41;;;10.76;92.28
21824;BME280;11074;48.596;9.238;2023-03-20T01:21:50;98478.69;;;10.77;92.02
21824;BME280;11074;48.596;9.238;2023-03-20T01:24:16;98483.75;;;10.78;92.64
21824;BME280;11074;48.596;9.238;2023-03-20T01:26:43;98486.84;;;10.87;92.57
21824;BME280;11074;48.596;9.238;2023-03-20T01:29:21;98483.06;;;10.83;91.54
21824;BME280;11074;48.596;9.238;2023-03-20T01:31:48;98482.22;;;10.82;91.57
21824;BME280;11074;48.596;9.238;2023-03-20T01:34:14;98477.44;;;10.84;91.89
21824;BME280;11074;48.596;9.238;2023-03-20T01:36:56;98480.69;;;10.86;91.92
21824;BME280;11074;48.596;9.238;2023-03-20T01:39:33;98479.69;;;10.92;92.36
21824;BME280;11074;48.596;9.238;2023-03-20T01:42:00;98484.00;;;10.93;90.98
21824;BME280;11074;48.596;9.238;2023-03-20T01:44:33;98489.34;;;10.93;90.91
21824;BME280;11074;48.596;9.238;2023-03-20T01:47:02;98483.19;;;10.93;91.55
21824;BME280;11074;48.596;9.238;2023-03-20T01:52:44;98483.34;;;10.86;91.42
21824;BME280;11074;48.596;9.238;2023-03-20T01:55:10;98489.44;;;10.82;92.45
21824;BME280;11074;48.596;9.238;2023-03-20T01:57:36;98482.22;;;10.82;92.23
21824;BME280;11074;48.596;9.238;2023-03-20T02:00:08;98487.88;;;10.86;92.26
21824;BME280;11074;48.596;9.238;2023-03-20T02:02:36;98480.59;;;10.81;92.02
21824;BME280;11074;48.596;9.238;2023-03-20T02:05:10;98485.72;;;10.83;93.09
21824;BME280;11074;48.596;9.238;2023-03-20T02:07:38;98481.75;;;10.85;92.84
21824;BME280;11074;48.596;9.238;2023-03-20T02:10:10;98486.84;;;10.87;92.44
21824;BME280;11074;48.596;9.238;2023-03-20T02:12:37;98487.88;;;10.86;92.14
21824;BME280;11074;48.596;9.238;2023-03-20T02:15:05;98486.03;;;10.86;92.03
21824;BME280;11074;48.596;9.238;2023-03-20T02:17:32;98493.22;;;10.86;92.46
21824;BME280;11074;48.596;9.238;2023-03-20T02:23:03;98489.78;;;10.85;92.57
21824;BME280;11074;48.596;9.238;2023-03-20T02:26:08;98502.13;;;10.91;91.64
21824;BME280;11074;48.596;9.238;2023-03-20T02:29:23;98502.41;;;10.90;92.31
21824;BME280;11074;48.596;9.238;2023-03-20T02:41:11;98513.09;;;10.90;91.59
21824;BME280;11074;48.596;9.238;2023-03-20T02:44:02;98499.16;;;10.88;92.37
21824;BME280;11074;48.596;9.238;2023-03-20T02:46:58;98499.41;;;10.86;92.11
21824;BME280;11074;48.596;9.238;2023-03-20T02:52:57;98503.69;;;10.87;92.97
21824;BME280;11074;48.596;9.238;2023-03-20T02:56:08;98504.25;;;10.89;92.05
21824;BME280;11074;48.596;9.238;2023-03-20T02:58:57;98501.09;;;10.92;92.23
21824;BME280;11074;48.596;9.238;2023-03-20T03:01:39;98503.28;;;10.95;91.87
21824;BME280;11074;48.596;9.238;2023-03-20T03:04:13;98500.13;;;10.99;91.02
21824;BME280;11074;48.596;9.238;2023-03-20T03:06:43;98498.50;;;10.98;91.45
21824;BME280;11074;48.596;9.238;2023-03-20T03:09:18;98500.34;;;10.97;90.76
21824;BME280;11074;48.596;9.238;2023-03-20T03:11:57;98502.41;;;10.90;90.05
21824;BME280;11074;48.596;9.238;2023-03-20T03:14:42;98501.50;;;10.84;90.28
21824;BME280;11074;48.596;9.238;2023-03-20T03:17:12;98509.94;;;10.76;90.01
21824;BME280;11074;48.596;9.238;2023-03-20T03:19:44;98508.03;;;10.72;89.92
21824;BME280;11074;48.596;9.238;2023-03-20T03:22:15;98503.38;;;10.67;90.25
21824;BME280;11074;48.596;9.238;2023-03-20T03:24:47;98504.53;;;10.71;89.56
21824;BME280;11074;48.596;9.238;2023-03-20T03:27:38;98512.88;;;10.75;89.41
21824;BME280;11074;48.596;9.238;2023-03-20T03:30:15;98510.75;;;10.77;89.08
21824;BME280;11074;48.596;9.238;2023-03-20T03:35:39;98520.16;;;10.79;89.04
21824;BME280;11074;48.596;9.238;2023-03-20T03:38:41;98524.69;;;10.79;89.28
21824;BME280;11074;48.596;9.238;2023-03-20T03:41:35;98525.09;;;10.71;90.60
21824;BME280;11074;48.596;9.238;2023-03-20T03:44:22;98520.38;;;10.78;90.19
21824;BME280;11074;48.596;9.238;2023-03-20T03:47:19;98528.94;;;10.75;90.71
21824;BME280;11074;48.596;9.238;2023-03-20T03:49:56;98530.44;;;10.71;91.00
21824;BME280;11074;48.596;9.238;2023-03-20T03:52:25;98542.28;;;10.75;91.15
21824;BME280;11074;48.596;9.238;2023-03-20T03:55:01;98538.56;;;10.76;91.25
21824;BME280;11074;48.596;9.238;2023-03-20T03:57:39;98542.03;;;10.76;90.46
21824;BME280;11074;48.596;9.238;2023-03-20T04:00:10;98545.88;;;10.80;90.30
21824;BME280;11074;48.596;9.238;2023-03-20T04:02:38;98539.09;;;10.78;91.17
21824;BME280;11074;48.596;9.238;2023-03-20T04:05:06;98541.78;;;10.78;90.17
21824;BME280;11074;48.596;9.238;2023-03-20T04:07:32;98533.47;;;10.74;90.80
21824;BME280;11074;48.596;9.238;2023-03-20T04:09:58;98535.88;;;10.76;90.76
21824;BME280;11074;48.596;9.238;2023-03-20T04:12:34;98542.19;;;10.70;91.23
21824;BME280;11074;48.596;9.238;2023-03-20T04:15:00;98539.22;;;10.66;91.59
21824;BME280;11074;48.596;9.238;2023-03-20T04:17:26;98547.31;;;10.71;91.11
21824;BME280;11074;48.596;9.238;2023-03-20T04:19:52;98546.00;;;10.74;91.17
21824;BME280;11074;48.596;9.238;2023-03-20T04:22:18;98545.28;;;10.78;90.80
21824;BME280;11074;48.596;9.238;2023-03-20T04:24:43;98542.28;;;10.75;90.15
21824;BME280;11074;48.596;9.238;2023-03-20T04:27:09;98547.88;;;10.73;90.49
21824;BME280;11074;48.596;9.238;2023-03-20T04:29:34;98547.06;;;10.73;90.84
21824;BME280;11074;48.596;9.238;2023-03-20T04:32:00;98550.31;;;10.75;90.39
21824;BME280;11074;48.596;9.238;2023-03-20T04:34:26;98555.97;;;10.78;90.93
21824;BME280;11074;48.596;9.238;2023-03-20T04:36:52;98545.75;;;10.75;91.13
21824;BME280;11074;48.596;9.238;2023-03-20T04:39:17;98543.09;;;10.75;91.06
21824;BME280;11074;48.596;9.238;2023-03-20T04:41:43;98536.94;;;10.75;91.16
21824;BME280;11074;48.596;9.238;2023-03-20T04:44:09;98543.09;;;10.75;91.35
21824;BME280;11074;48.596;9.238;2023-03-20T04:46:35;98531.00;;;10.73;91.32
21824;BME280;11074;48.596;9.238;2023-03-20T04:49:00;98532.78;;;10.67;91.21
21824;BME280;11074;48.596;9.238;2023-03-20T04:51:26;98519.94;;;10.64;92.08
21824;BME280;11074;48.596;9.238;2023-03-20T04:53:51;98518.31;;;10.63;92.29
21824;BME280;11074;48.596;9.238;2023-03-20T04:56:17;98525.28;;;10.64;91.17
21824;BME280;11074;48.596;9.238;2023-03-20T04:58:43;98534.69;;;10.67;90.85
21824;BME280;11074;48.596;9.238;2023-03-20T05:01:09;98532.47;;;10.64;91.61
21824;BME280;11074;48.596;9.238;2023-03-20T05:03:34;98532.97;;;10.61;91.03
21824;BME280;11074;48.596;9.238;2023-03-20T05:06:00;98534.81;;;10.60;91.17
21824;BME280;11074;48.596;9.238;2023-03-20T05:08:26;98533.78;;;10.61;90.61
21824;BME280;11074;48.596;9.238;2023-03-20T05:10:52;98537.16;;;10.57;91.51
21824;BME280;11074;48.596;9.238;2023-03-20T05:13:17;98550.31;;;10.58;91.66
21824;BME280;11074;48.596;9.238;2023-03-20T05:15:43;98543.81;;;10.54;91.41
21824;BME280;11074;48.596;9.238;2023-03-20T05:18:09;98549.16;;;10.54;91.37
21824;BME280;11074;48.596;9.238;2023-03-20T05:20:35;98554.50;;;10.54;91.58
21824;BME280;11074;48.596;9.238;2023-03-20T05:23:01;98557.16;;;10.54;92.13
21824;BME280;11074;48.596;9.238;2023-03-20T05:25:27;98561.72;;;10.54;92.00
21824;BME280;11074;48.596;9.238;2023-03-20T05:27:53;98563.59;;;10.53;91.75
21824;BME280;11074;48.596;9.238;2023-03-20T05:30:19;98569.16;;;10.52;91.93
21824;BME280;11074;48.596;9.238;2023-03-20T05:32:48;98572.09;;;10.50;92.43
21824;BME280;11074;48.596;9.238;2023-03-20T05:35:13;98574.28;;;10.53;90.89
21824;BME280;11074;48.596;9.238;2023-03-20T05:37:39;98577.53;;;10.55;91.30
21824;BME280;11074;48.596;9.238;2023-03-20T05:40:06;98583.13;;;10.54;91.67
21824;BME280;11074;48.596;9.238;2023-03-20T05:42:32;98578.00;;;10.52;91.63
21824;BME280;11074;48.596;9.238;2023-03-20T05:44:58;98577.44;;;10.50;91.22
21824;BME280;11074;48.596;9.238;2023-03-20T05:47:23;98573.13;;;10.49;91.13
21824;BME280;11074;48.596;9.238;2023-03-20T05:49:50;98559.53;;;10.51;90.94
21824;BME280;11074;48.596;9.238;2023-03-20T05:52:15;98559.53;;;10.51;91.31
21824;BME280;11074;48.596;9.238;2023-03-20T05:54:41;98563.97;;;10.45;91.38
21824;BME280;11074;48.596;9.238;2023-03-20T05:57:06;98564.22;;;10.44;92.02
21824;BME280;11074;48.596;9.238;2023-03-20T05:59:32;98571.44;;;10.43;91.49
21824;BME280;11074;48.596;9.238;2023-03-20T06:01:59;98574.91;;;10.44;91.68
21824;BME280;11074;48.596;9.238;2023-03-20T06:04:25;98579.94;;;10.40;91.67
21824;BME280;11074;48.596;9.238;2023-03-20T06:06:51;98580.97;;;10.39;91.40
21824;BME280;11074;48.596;9.238;2023-03-20T06:09:16;98579.34;;;10.38;90.96
21824;BME280;11074;48.596;9.238;2023-03-20T06:11:42;98591.09;;;10.37;91.61
21824;BME280;11074;48.596;9.238;2023-03-20T06:14:08;98596.53;;;10.42;91.78
21824;BME280;11074;48.596;9.238;2023-03-20T06:16:33;98593.69;;;10.49;92.02
21824;BME280;11074;48.596;9.238;2023-03-20T06:18:59;98600.13;;;10.48;91.68
21824;BME280;11074;48.596;9.238;2023-03-20T06:21:25;98600.13;;;10.48;91.01
21824;BME280;11074;48.596;9.238;2023-03-20T06:23:51;98603.09;;;10.51;91.45
21824;BME280;11074;48.596;9.238;2023-03-20T06:26:19;98596.22;;;10.55;91.99
21824;BME280;11074;48.596;9.238;2023-03-20T06:28:45;98607.00;;;10.60;91.00
21824;BME280;11074;48.596;9.238;2023-03-20T06:31:11;98606.53;;;10.63;91.35
21824;BME280;11074;48.596;9.238;2023-03-20T06:33:37;98604.97;;;10.67;91.02
21824;BME280;11074;48.596;9.238;2023-03-20T06:36:03;98599.97;;;10.71;91.42
21824;BME280;11074;48.596;9.238;2023-03-20T06:38:29;98608.88;;;10.76;91.55
21824;BME280;11074;48.596;9.238;2023-03-20T06:40:55;98604.09;;;10.78;91.02
21824;BME280;11074;48.596;9.238;2023-03-20T06:43:21;98601.75;;;10.82;90.87
21824;BME280;11074;48.596;9.238;2023-03-20T06:45:47;98595.69;;;10.86;90.08
21824;BME280;11074;48.596;9.238;2023-03-20T06:48:13;98590.09;;;10.88;90.57
21824;BME280;11074;48.596;9.238;2023-03-20T06:50:38;98596.00;;;10.90;89.77
21824;BME280;11074;48.596;9.238;2023-03-20T06:53:04;98589.03;;;10.89;89.61
21824;BME280;11074;48.596;9.238;2023-03-20T06:55:30;98584.16;;;10.86;89.26
21824;BME280;11074;48.596;9.238;2023-03-20T06:57:56;98582.31;;;10.86;89.07
21824;BME280;11074;48.596;9.238;2023-03-20T07:00:22;98591.97;;;10.87;87.83
21824;BME280;11074;48.596;9.238;2023-03-20T07:02:47;98589.50;;;10.86;88.07
21824;BME280;11074;48.596;9.238;2023-03-20T07:05:14;98587.19;;;10.89;87.48
21824;BME280;11074;48.596;9.238;2023-03-20T07:07:40;98597.94;;;10.94;86.64
21824;BME280;11074;48.596;9.238;2023-03-20T07:10:07;98599.88;;;10.99;86.57
21824;BME280;11074;48.596;9.238;2023-03-20T07:12:34;98590.34;;;11.03;87.00
21824;BME280;11074;48.596;9.238;2023-03-20T07:15:00;98603.84;;;11.13;85.73
21824;BME280;11074;48.596;9.238;2023-03-20T07:17:25;98601.03;;;11.20;85.70
21824;BME280;11074;48.596;9.238;2023-03-20T07:19:51;98600.84;;;11.26;85.61
21824;BME280;11074;48.596;9.238;2023-03-20T07:22:23;98602.13;;;11.40;84.69
21824;BME280;11074;48.596;9.238;2023-03-20T07:24:50;98611.03;;;11.46;84.15
21824;BME280;11074;48.596;9.238;2023-03-20T07:27:16;98604.00;;;11.40;84.55
21824;BME280;11074;48.596;9.238;2023-03-20T07:29:43;98604.06;;;11.45;84.06
21824;BME280;11074;48.596;9.238;2023-03-20T07:32:09;98612.66;;;11.47;84.48
21824;BME280;11074;48.596;9.238;2023-03-20T07:34:34;98621.91;;;11.39;83.85
21824;BME280;11074;48.596;9.238;2023-03-20T07:37:00;98622.78;;;11.45;83.79
21824;BME280;11074;48.596;9.238;2023-03-20T07:39:26;98620.94;;;11.45;83.34
21824;BME280;11074;48.596;9.238;2023-03-20T07:41:52;98620.47;;;11.32;84.23
21824;BME280;11074;48.596;9.238;2023-03-20T07:44:18;98630.94;;;11.33;83.98
21824;BME280;11074;48.596;9.238;2023-03-20T07:46:44;98628.50;;;11.32;84.05
21824;BME280;11074;48.596;9.238;2023-03-20T07:49:17;98629.47;;;11.26;83.74
21824;BME280;11074;48.596;9.238;2023-03-20T07:51:44;98629.78;;;11.29;84.27
21824;BME280;11074;48.596;9.238;2023-03-20T07:54:10;98631.25;;;11.37;83.99
21824;BME280;11074;48.596;9.238;2023-03-20T07:56:35;98623.28;;;11.42;84.04
21824;BME280;11074;48.596;9.238;2023-03-20T07:59:02;98618.88;;;11.52;83.65
21824;BME280;11074;48.596;9.238;2023-03-20T08:01:28;98623.31;;;11.64;83.39
21824;BME280;11074;48.596;9.238;2023-03-20T08:03:53;98626.16;;;11.74;82.44
21824;BME280;11074;48.596;9.238;2023-03-20T08:06:19;98619.81;;;11.80;82.22
21824;BME280;11074;48.596;9.238;2023-03-20T08:08:45;98619.34;;;11.83;82.83
21824;BME280;11074;48.596;9.238;2023-03-20T08:11:11;98615.13;;;11.87;81.75
21824;BME280;11074;48.596;9.238;2023-03-20T08:13:37;98611.13;;;11.89;81.65
21824;BME280;11074;48.596;9.238;2023-03-20T08:16:04;98616.28;;;11.96;81.23
21824;BME280;11074;48.596;9.238;2023-03-20T08:18:30;98614.41;;;11.96;82.22
21824;BME280;11074;48.596;9.238;2023-03-20T08:20:56;98617.41;;;12.00;81.31
21824;BME280;11074;48.596;9.238;2023-03-20T08:23:21;98612.34;;;12.03;81.03
21824;BME280;11074;48.596;9.238;2023-03-20T08:25:48;98621.75;;;12.06;80.33
21824;BME280;11074;48.596;9.238;2023-03-20T08:28:15;98622.94;;;12.15;80.36
21824;BME280;11074;48.596;9.238;2023-03-20T08:30:41;98618.94;;;12.18;79.54
21824;BME280;11074;48.596;9.238;2023-03-20T08:33:07;98626.94;;;12.12;79.11
21824;BME280;11074;48.596;9.238;2023-03-20T08:35:33;98630.44;;;12.13;78.93
21824;BME280;11074;48.596;9.238;2023-03-20T08:37:59;98628.75;;;12.07;78.16
21824;BME280;11074;48.596;9.238;2023-03-20T08:40:25;98623.81;;;11.99;78.57
21824;BME280;11074;48.596;9.238;2023-03-20T08:42:51;98623.44;;;11.90;78.06
21824;BME280;11074;48.596;9.238;2023-03-20T08:45:16;98625.31;;;11.90;78.51
21824;BME280;11074;48.596;9.238;2023-03-20T08:47:42;98622.63;;;11.90;78.39
21824;BME280;11074;48.596;9.238;2023-03-20T08:50:09;98620.00;;;11.95;77.94
21824;BME280;11074;48.596;9.238;2023-03-20T08:52:35;98625.44;;;12.00;76.91
21824;BME280;11074;48.596;9.238;2023-03-20T08:55:00;98635.66;;;12.03;77.18
21824;BME280;11074;48.596;9.238;2023-03-20T08:57:26;98630.72;;;11.95;76.38
21824;BME280;11074;48.596;9.238;2023-03-20T08:59:52;98628.75;;;11.85;76.01
21824;BME280;11074;48.596;9.238;2023-03-20T09:02:17;98627.75;;;11.91;76.07
21824;BME280;11074;48.596;9.238;2023-03-20T09:04:43;98626.13;;;11.90;76.03
21824;BME280;11074;48.596;9.238;2023-03-20T09:07:09;98633.22;;;12.01;76.14
21824;BME280;11074;48.596;9.238;2023-03-20T09:09:35;98625.84;;;12.13;75.74
21824;BME280;11074;48.596;9.238;2023-03-20T09:12:00;98617.97;;;12.24;75.73
21824;BME280;11074;48.596;9.238;2023-03-20T09:14:27;98629.22;;;12.26;74.92
21824;BME280;11074;48.596;9.238;2023-03-20T09:16:53;98625.84;;;12.35;74.59
21824;BME280;11074;48.596;9.238;2023-03-20T09:19:19;98627.78;;;12.40;74.68
21824;BME280;11074;48.596;9.238;2023-03-20T09:21:45;98631.66;;;12.54;74.02
21824;BME280;11074;48.596;9.238;2023-03-20T09:24:11;98626.06;;;12.55;73.01
21824;BME280;11074;48.596;9.238;2023-03-20T09:26:38;98631.03;;;12.68;72.75
21824;BME280;11074;48.596;9.238;2023-03-20T09:29:04;98631.06;;;12.73;72.26
21824;BME280;11074;48.596;9.238;2023-03-20T09:31:31;98626.56;;;12.79;72.90
21824;BME280;11074;48.596;9.238;2023-03-20T09:33:57;98633.00;;;12.83;72.22
21824;BME280;11074;48.596;9.238;2023-03-20T09:36:22;98636.31;;;12.90;71.76
21824;BME280;11074;48.596;9.238;2023-03-20T09:38:48;98632.09;;;12.99;71.50
21824;BME280;11074;48.596;9.238;2023-03-20T09:41:21;98630.59;;;13.08;71.51
21824;BME280;11074;48.596;9.238;2023-03-20T09:47:03;98622.13;;;13.26;69.42
21824;BME280;11074;48.596;9.238;2023-03-20T09:52:34;98624.78;;;13.21;68.92
21824;BME280;11074;48.596;9.238;2023-03-20T09:55:16;98621.53;;;13.14;67.93
21824;BME280;11074;48.596;9.238;2023-03-20T09:57:52;98617.72;;;13.10;68.46
21824;BME280;11074;48.596;9.238;2023-03-20T10:00:23;98622.88;;;13.17;68.96
21824;BME280;11074;48.596;9.238;2023-03-20T10:02:59;98616.66;;;13.11;67.45
21824;BME280;11074;48.596;9.238;2023-03-20T10:05:30;98618.91;;;13.24;67.78
21824;BME280;11074;48.596;9.238;2023-03-20T10:08:01;98616.25;;;13.29;66.55
21824;BME280;11074;48.596;9.238;2023-03-20T10:11:03;98612.56;;;13.41;66.51
21824;BME280;11074;48.596;9.238;2023-03-20T10:19:31;98626.53;;;13.43;65.82
21824;BME280;11074;48.596;9.238;2023-03-20T10:25:36;98629.88;;;13.23;66.48
21824;BME280;11074;48.596;9.238;2023-03-20T10:28:35;98631.56;;;13.29;67.37
21824;BME280;11074;48.596;9.238;2023-03-20T10:31:33;98631.81;;;13.27;66.37
21824;BME280;11074;48.596;9.238;2023-03-20T10:42:41;98641.47;;;13.28;68.10
21824;BME280;11074;48.596;9.238;2023-03-20T10:45:47;98633.44;;;13.33;67.57
21824;BME280;11074;48.596;9.238;2023-03-20T10:48:37;98632.09;;;13.31;67.96
21824;BME280;11074;48.596;9.238;2023-03-20T10:51:04;98629.13;;;13.27;67.48
21824;BME280;11074;48.596;9.238;2023-03-20T10:53:53;98634.00;;;13.30;68.21
21824;BME280;11074;48.596;9.238;2023-03-20T10:56:46;98625.16;;;13.35;67.53
21824;BME280;11074;48.596;9.238;2023-03-20T10:59:53;98627.94;;;13.50;66.47
21824;BME280;11074;48.596;9.238;2023-03-20T11:02:23;98614.56;;;13.60;66.48
21824;BME280;11074;48.596;9.238;2023-03-20T11:04:50;98619.19;;;13.70;65.91
21824;BME280;11074;48.596;9.238;2023-03-20T11:07:27;98612.81;;;13.86;64.66
21824;BME280;11074;48.596;9.238;2023-03-20T11:12:41;98610.47;;;14.05;63.16
21824;BME280;11074;48.596;9.238;2023-03-20T11:15:26;98613.41;;;14.03;62.75
21824;BME280;11074;48.596;9.238;2023-03-20T11:18:02;98617.94;;;13.87;62.56
21824;BME280;11074;48.596;9.238;2023-03-20T11:20:37;98606.09;;;13.83;63.81
21824;BME280;11074;48.596;9.238;2023-03-20T11:23:06;98613.38;;;13.93;63.46
21824;BME280;11074;48.596;9.238;2023-03-20T11:25:48;98617.72;;;13.99;62.85
21824;BME280;11074;48.596;9.238;2023-03-20T11:28:20;98603.75;;;14.02;62.05
21824;BME280;11074;48.596;9.238;2023-03-20T11:30:56;98598.41;;;14.07;62.04
21824;BME280;11074;48.596;9.238;2023-03-20T11:33:26;98602.69;;;14.08;62.05
21824;BME280;11074;48.596;9.238;2023-03-20T11:35:56;98604.31;;;14.09;61.86
21824;BME280;11074;48.596;9.238;2023-03-20T11:38:22;98605.38;;;14.08;61.28
21824;BME280;11074;48.596;9.238;2023-03-20T11:40:50;98602.94;;;13.96;60.29
21824;BME280;11074;48.596;9.238;2023-03-20T11:43:22;98604.00;;;14.01;61.41
21824;BME280;11074;48.596;9.238;2023-03-20T11:45:55;98608.31;;;14.02;60.11
21824;BME280;11074;48.596;9.238;2023-03-20T11:48:45;98604.28;;;13.99;59.92
21824;BME280;11074;48.596;9.238;2023-03-20T11:51:19;98601.06;;;13.97;59.98
21824;BME280;11074;48.596;9.238;2023-03-20T11:56:20;98594.03;;;13.96;60.92
21824;BME280;11074;48.596;9.238;2023-03-20T11:59:16;98596.75;;;14.01;61.13
21824;BME280;11074;48.596;9.238;2023-03-20T12:01:52;98598.41;;;14.07;59.97
21824;BME280;11074;48.596;9.238;2023-03-20T12:04:35;98599.47;;;14.16;59.90
21824;BME280;11074;48.596;9.238;2023-03-20T12:07:19;98598.19;;;14.29;59.65
21824;BME280;11074;48.596;9.238;2023-03-20T12:10:06;98589.88;;;14.35;59.41
21824;BME280;11074;48.596;9.238;2023-03-20T12:13:02;98591.00;;;14.49;58.66
21824;BME280;11074;48.596;9.238;2023-03-20T12:15:37;98581.06;;;14.50;58.87
21824;BME280;11074;48.596;9.238;2023-03-20T12:18:35;98584.00;;;14.48;58.91
21824;BME280;11074;48.596;9.238;2023-03-20T12:21:27;98580.47;;;14.43;59.46
21824;BME280;11074;48.596;9.238;2023-03-20T12:23:58;98588.31;;;14.39;59.21
21824;BME280;11074;48.596;9.238;2023-03-20T12:26:47;98579.91;;;14.26;58.54
21824;BME280;11074;48.596;9.238;2023-03-20T12:29:41;98571.53;;;14.17;59.56
21824;BME280;11074;48.596;9.238;2023-03-20T12:32:20;98569.38;;;14.19;59.69
21824;BME280;11074;48.596;9.238;2023-03-20T12:37:32;98568.31;;;14.25;59.41
21824;BME280;11074;48.596;9.238;2023-03-20T12:40:00;98566.44;;;14.26;58.33
21824;BME280;11074;48.596;9.238;2023-03-20T12:42:51;98558.63;;;14.24;58.21
21824;BME280;11074;48.596;9.238;2023-03-20T12:45:26;98560.50;;;14.19;58.32
21824;BME280;11074;48.596;9.238;2023-03-20T12:48:31;98562.94;;;14.15;58.67
21824;BME280;11074;48.596;9.238;2023-03-20T12:51:09;98564.78;;;14.10;60.05
21824;BME280;11074;48.596;9.238;2023-03-20T12:56:43;98560.69;;;13.92;60.99
21824;BME280;11074;48.596;9.238;2023-03-20T13:05:24;98556.94;;;13.88;61.10
21824;BME280;11074;48.596;9.238;2023-03-20T13:08:30;98551.84;;;13.91;60.93
21824;BME280;11074;48.596;9.238;2023-03-20T13:11:38;98544.03;;;13.90;60.61
21824;BME280;11074;48.596;9.238;2023-03-20T13:14:30;98542.97;;;13.91;60.70
21824;BME280;11074;48.596;9.238;2023-03-20T13:17:16;98535.47;;;14.03;60.48
21824;BME280;11074;48.596;9.238;2023-03-20T13:23:24;98529.63;;;14.26;60.69
21824;BME280;11074;48.596;9.238;2023-03-20T13:28:51;98519.72;;;14.37;59.98
21824;BME280;11074;48.596;9.238;2023-03-20T13:35:03;98518.38;;;14.34;60.14
21824;BME280;11074;48.596;9.238;2023-03-20T13:37:36;98521.84;;;14.35;59.87
21824;BME280;11074;48.596;9.238;2023-03-20T13:40:24;98518.09;;;14.36;59.60
21824;BME280;11074;48.596;9.238;2023-03-20T13:43:05;98522.94;;;14.44;59.02
21824;BME280;11074;48.596;9.238;2023-03-20T13:45:40;98507.31;;;14.51;58.97
21824;BME280;11074;48.596;9.238;2023-03-20T13:51:03;98503.56;;;14.47;59.11
21824;BME280;11074;48.596;9.238;2023-03-20T13:59:52;98495.94;;;15.14;57.49
21824;BME280;11074;48.596;9.238;2023-03-20T14:03:17;98493.34;;;15.73;55.15
21824;BME280;11074;48.596;9.238;2023-03-20T14:05:45;98489.47;;;15.95;54.93
21824;BME280;11074;48.596;9.238;2023-03-20T14:14:16;98485.09;;;16.43;52.99
21824;BME280;11074;48.596;9.238;2023-03-20T14:16:44;98482.69;;;16.41;52.39
21824;BME280;11074;48.596;9.238;2023-03-20T14:19:23;98480.22;;;16.45;52.93
21824;BME280;11074;48.596;9.238;2023-03-20T14:21:53;98479.38;;;16.49;52.95
21824;BME280;11074;48.596;9.238;2023-03-20T14:24:23;98469.66;;;16.48;52.67
21824;BME280;11074;48.596;9.238;2023-03-20T14:26:55;98484.88;;;16.34;53.08
21824;BME280;11074;48.596;9.238;2023-03-20T14:32:21;98485.38;;;15.97;52.88
21824;BME280;11074;48.596;9.238;2023-03-20T14:34:57;98482.50;;;15.89;53.01
21824;BME280;11074;48.596;9.238;2023-03-20T14:38:08;98491.16;;;15.75;54.03
21824;BME280;11074;48.596;9.238;2023-03-20T14:41:18;98484.50;;;15.63;54.14
21824;BME280;11074;48.596;9.238;2023-03-20T14:52:31;98480.00;;;15.48;54.52
21824;BME280;11074;48.596;9.238;2023-03-20T14:57:43;98481.88;;;15.38;54.33
21824;BME280;11074;48.596;9.238;2023-03-20T15:00:21;98476.28;;;15.19;54.91
21824;BME280;11074;48.596;9.238;2023-03-20T15:02:52;98469.56;;;15.06;54.63
21824;BME280;11074;48.596;9.238;2023-03-20T15:05:29;98467.44;;;14.98;54.37
21824;BME280;11074;48.596;9.238;2023-03-20T15:08:04;98474.19;;;14.96;54.35
21824;BME280;11074;48.596;9.238;2023-03-20T15:10:35;98478.75;;;14.90;55.36